createdAt,value
2022-08-22T00:02:43.620Z,100241.20
2022-08-22T00:02:48.505Z,100234.20
2022-08-22T00:03:34.048Z,100283.80
2022-08-22T00:09:25.082Z,100280.20
2022-08-22T00:14:48.056Z,100283.00
2022-08-22T00:20:19.015Z,100285.60
2022-08-22T00:25:47.216Z,100285.80
2022-08-22T00:31:03.059Z,100287.80
2022-08-22T00:36:15.430Z,100291.40
2022-08-22T00:41:39.016Z,100292.80
2022-08-22T00:46:42.559Z,100292.80
2022-08-22T00:52:27.421Z,100297.60
2022-08-22T00:57:49.374Z,100303.80
2022-08-22T01:03:28.415Z,100308.60
2022-08-22T01:09:02.697Z,100311.60
2022-08-22T01:14:14.871Z,100315.20
2022-08-22T01:19:30.370Z,100316.60
2022-08-22T01:25:25.872Z,100315.60
2022-08-22T01:30:50.720Z,100315.20
2022-08-22T01:36:14.115Z,100314.00
2022-08-22T01:41:47.722Z,100318.60
2022-08-22T01:47:12.131Z,100314.00
2022-08-22T01:52:51.280Z,100309.40
2022-08-22T01:58:04.215Z,100310.80
2022-08-22T02:03:31.181Z,100310.60
2022-08-22T02:09:06.892Z,100318.20
2022-08-22T02:14:19.492Z,100320.80
2022-08-22T02:19:45.451Z,100319.20
2022-08-22T02:25:09.148Z,100322.60
2022-08-22T02:30:28.396Z,100330.20
2022-08-22T02:35:43.091Z,100328.40
2022-08-22T02:41:24.579Z,100327.00
2022-08-22T02:47:04.755Z,100323.80
2022-08-22T02:52:25.585Z,100316.80
2022-08-22T02:58:04.631Z,100321.20
2022-08-22T03:03:26.368Z,100324.20
2022-08-22T03:08:39.107Z,100331.00
2022-08-22T03:14:26.648Z,100327.80
2022-08-22T03:20:01.909Z,100330.40
2022-08-22T03:25:31.361Z,100337.00
2022-08-22T03:30:56.803Z,100338.80
2022-08-22T03:36:31.831Z,100342.80
2022-08-22T03:42:30.947Z,100344.60
2022-08-22T03:48:31.013Z,100351.00
2022-08-22T03:53:46.598Z,100349.60
2022-08-22T03:59:09.974Z,100352.60
2022-08-22T04:05:04.620Z,100349.40
2022-08-22T04:10:58.235Z,100342.60
2022-08-22T04:16:30.688Z,100348.00
2022-08-22T04:22:12.569Z,100346.60
2022-08-22T04:28:01.504Z,100353.40
2022-08-22T04:33:16.948Z,100357.60
2022-08-22T04:38:40.950Z,100356.80
2022-08-22T04:43:44.404Z,100363.00
2022-08-22T04:49:23.102Z,100360.40
2022-08-22T04:55:11.162Z,100359.40
2022-08-22T05:00:17.501Z,100369.20
2022-08-22T05:05:28.227Z,100369.60
2022-08-22T05:10:40.344Z,100368.20
2022-08-22T05:15:52.157Z,100376.80
2022-08-22T05:21:02.570Z,100380.60
2022-08-22T05:26:08.266Z,100386.00
2022-08-22T05:31:24.076Z,100389.20
2022-08-22T05:36:35.608Z,100392.60
2022-08-22T05:41:41.386Z,100389.40
2022-08-22T05:46:52.470Z,100389.20
2022-08-22T05:52:18.130Z,100395.40
2022-08-22T05:57:32.943Z,100392.60
2022-08-22T06:02:55.650Z,100393.60
2022-08-22T06:08:20.672Z,100398.20
2022-08-22T06:13:42.106Z,100397.20
2022-08-22T06:18:46.747Z,100394.60
2022-08-22T06:24:00.247Z,100395.20
2022-08-22T06:29:07.386Z,100400.80
2022-08-22T06:34:23.873Z,100397.60
2022-08-22T06:39:37.248Z,100400.20
2022-08-22T06:44:54.637Z,100397.40
2022-08-22T06:50:28.503Z,100398.80
2022-08-22T06:55:34.111Z,100403.00
2022-08-22T07:00:43.205Z,100404.00
2022-08-22T07:05:47.703Z,100413.20
2022-08-22T07:11:22.053Z,100414.20
2022-08-22T07:16:36.184Z,100420.80
2022-08-22T07:21:47.356Z,100414.80
2022-08-22T07:27:09.278Z,100425.80
2022-08-22T07:32:43.993Z,100427.40
2022-08-22T07:38:00.168Z,100429.40
2022-08-22T07:43:33.299Z,100421.60
2022-08-22T07:49:08.768Z,100430.20
2022-08-22T07:54:28.869Z,100436.80
2022-08-22T07:59:37.507Z,100439.80
2022-08-22T08:04:42.643Z,100441.60
2022-08-22T08:10:11.143Z,100430.80
2022-08-22T08:15:24.404Z,100436.20
2022-08-22T08:20:29.868Z,100438.60
2022-08-22T08:26:04.103Z,100435.60
2022-08-22T08:31:22.264Z,100433.60
2022-08-22T08:36:38.573Z,100432.00
2022-08-22T08:42:21.333Z,100425.00
2022-08-22T08:47:39.799Z,100427.20
2022-08-22T08:53:02.030Z,100427.00
2022-08-22T08:58:36.171Z,100423.60
2022-08-22T09:03:59.653Z,100423.40
2022-08-22T09:09:39.991Z,100423.80
2022-08-22T09:15:11.800Z,100416.20
2022-08-22T09:20:46.668Z,100408.60
2022-08-22T09:26:17.317Z,100409.40
2022-08-22T09:31:44.823Z,100408.60
2022-08-22T09:37:09.953Z,100416.60
2022-08-22T09:42:37.694Z,100417.80
2022-08-22T09:48:06.411Z,100427.40
2022-08-22T09:53:44.042Z,100428.40
2022-08-22T09:59:14.794Z,100431.40
2022-08-22T10:05:04.212Z,100429.80
2022-08-22T10:10:22.749Z,100423.20
2022-08-22T10:15:52.567Z,100427.00
2022-08-22T10:21:19.479Z,100420.00
2022-08-22T10:26:54.205Z,100430.60
2022-08-22T10:32:26.957Z,100432.60
2022-08-22T10:37:53.958Z,100431.40
2022-08-22T10:44:00.856Z,100433.00
2022-08-22T10:49:37.175Z,100438.60
2022-08-22T10:54:56.710Z,100434.20
2022-08-22T11:00:34.955Z,100431.40
2022-08-22T11:05:50.790Z,100434.80
2022-08-22T11:11:42.097Z,100432.80
2022-08-22T11:17:28.137Z,100424.80
2022-08-22T11:22:41.960Z,100422.00
2022-08-22T11:28:32.379Z,100425.20
2022-08-22T11:34:24.736Z,100431.00
2022-08-22T11:40:05.402Z,100431.20
2022-08-22T11:45:18.305Z,100434.00
2022-08-22T11:50:42.980Z,100433.00
2022-08-22T11:55:59.704Z,100435.60
2022-08-22T12:01:22.284Z,100434.20
2022-08-22T12:06:54.502Z,100432.40
2022-08-22T12:12:20.743Z,100432.80
2022-08-22T12:18:21.756Z,100430.00
2022-08-22T12:23:48.749Z,100427.00
2022-08-22T12:29:04.852Z,100424.80
2022-08-22T12:34:44.296Z,100430.80
2022-08-22T12:39:50.386Z,100432.20
2022-08-22T12:45:05.697Z,100436.80
2022-08-22T12:50:27.928Z,100433.00
2022-08-22T12:55:59.851Z,100433.00
2022-08-22T13:01:08.832Z,100433.80
2022-08-22T13:06:34.174Z,100425.00
2022-08-22T13:11:43.645Z,100422.40
2022-08-22T13:16:54.215Z,100419.80
2022-08-22T13:22:09.307Z,100421.40
2022-08-22T13:27:50.560Z,100418.00
2022-08-22T13:33:22.621Z,100425.20
2022-08-22T13:38:56.510Z,100416.40
2022-08-22T13:44:06.907Z,100418.80
2022-08-22T13:49:18.879Z,100414.20
2022-08-22T13:55:12.199Z,100407.60
2022-08-22T14:00:25.418Z,100416.00
2022-08-22T14:05:45.770Z,100416.40
2022-08-22T14:11:22.943Z,100420.80
2022-08-22T14:16:47.306Z,100407.60
2022-08-22T14:22:22.027Z,100406.80
2022-08-22T14:27:52.764Z,100398.20
2022-08-22T14:33:21.124Z,100401.20
2022-08-22T14:38:46.334Z,100399.40
2022-08-22T14:44:09.003Z,100398.80
2022-08-22T14:49:19.655Z,100398.20
2022-08-22T14:54:28.891Z,100401.40
2022-08-22T14:59:50.333Z,100403.40
2022-08-22T15:04:56.275Z,100408.60
2022-08-22T15:10:44.652Z,100407.20
2022-08-22T15:15:54.303Z,100412.40
2022-08-22T15:21:12.960Z,100407.80
2022-08-22T15:26:36.628Z,100405.40
2022-08-22T15:31:46.387Z,100408.60
2022-08-22T15:37:11.958Z,100396.80
2022-08-22T15:42:27.574Z,100401.40
2022-08-22T15:47:41.723Z,100404.20
2022-08-22T15:53:06.616Z,100407.20
2022-08-22T15:58:22.175Z,100409.80
2022-08-22T16:03:31.117Z,100405.40
2022-08-22T16:08:58.058Z,100400.40
2022-08-22T16:14:21.398Z,100395.20
2022-08-22T16:19:29.574Z,100396.20
2022-08-22T16:24:58.459Z,100391.40
2022-08-22T16:30:11.812Z,100393.20
2022-08-22T16:36:16.968Z,100394.00
2022-08-22T16:41:42.102Z,100401.00
2022-08-22T16:46:47.985Z,100400.00
2022-08-22T16:52:26.702Z,100407.80
2022-08-22T16:57:38.615Z,100411.60
2022-08-22T17:03:01.530Z,100414.20
2022-08-22T17:08:43.198Z,100421.80
2022-08-22T17:13:57.267Z,100424.20
2022-08-22T17:19:06.132Z,100432.20
2022-08-22T17:24:34.313Z,100440.00
2022-08-22T17:29:53.942Z,100442.80
2022-08-22T17:35:34.067Z,100440.80
2022-08-22T17:40:55.811Z,100439.20
2022-08-22T17:46:51.850Z,100454.60
2022-08-22T17:52:07.246Z,100450.20
2022-08-22T17:57:22.457Z,100455.00
2022-08-22T18:02:53.498Z,100459.40
2022-08-22T18:08:38.108Z,100459.20
2022-08-22T18:14:26.958Z,100473.40
2022-08-22T18:19:55.154Z,100475.20
2022-08-22T18:25:26.421Z,100482.00
2022-08-22T18:30:47.339Z,100491.20
2022-08-22T18:36:01.401Z,100491.80
2022-08-22T18:41:36.800Z,100496.00
2022-08-22T18:47:21.969Z,100498.20
2022-08-22T18:52:25.169Z,100491.60
2022-08-22T18:57:47.729Z,100492.80
2022-08-22T19:03:36.815Z,100494.20
2022-08-22T19:09:28.264Z,100490.60
2022-08-22T19:15:04.845Z,100485.40
2022-08-22T19:20:48.126Z,100488.40
2022-08-22T19:26:41.328Z,100485.20
2022-08-22T19:32:02.194Z,100484.00
2022-08-22T19:37:33.609Z,100482.40
2022-08-22T19:42:43.341Z,100490.40
2022-08-22T19:48:08.508Z,100482.40
2022-08-22T19:53:19.644Z,100480.00
2022-08-22T19:58:59.511Z,100489.40
2022-08-22T20:04:09.509Z,100492.40
2022-08-22T20:09:31.020Z,100504.40
2022-08-22T20:14:40.195Z,100497.00
2022-08-22T20:20:23.894Z,100488.40
2022-08-22T20:25:55.739Z,100494.80
2022-08-22T20:31:06.204Z,100487.80
2022-08-22T20:36:28.445Z,100487.60
2022-08-22T20:41:43.582Z,100486.40
2022-08-22T20:46:47.073Z,100487.60
2022-08-22T20:52:00.020Z,100483.80
2022-08-22T20:57:18.138Z,100486.60
2022-08-22T21:02:34.357Z,100485.00
2022-08-22T21:07:49.110Z,100480.40
2022-08-22T21:13:14.362Z,100476.00
2022-08-22T21:18:29.260Z,100470.00
2022-08-22T21:23:32.856Z,100473.40
2022-08-22T21:28:53.385Z,100478.00
2022-08-22T21:33:58.524Z,100466.80
2022-08-22T21:39:12.590Z,100467.60
2022-08-22T21:44:31.048Z,100458.00
2022-08-22T21:49:34.300Z,100449.80
2022-08-22T21:54:40.403Z,100443.60
2022-08-22T21:59:59.326Z,100435.00
2022-08-22T22:05:12.469Z,100431.40
2022-08-22T22:10:21.139Z,100434.40
2022-08-22T22:15:28.918Z,100434.40
2022-08-22T22:20:33.471Z,100436.80
2022-08-22T22:25:42.163Z,100423.00
2022-08-22T22:30:50.629Z,100417.60
2022-08-22T22:35:57.450Z,100418.40
2022-08-22T22:41:00.830Z,100425.00
2022-08-22T22:46:04.957Z,100429.20
2022-08-22T22:51:13.189Z,100429.80
2022-08-22T22:56:23.301Z,100422.20
2022-08-22T23:01:27.848Z,100426.00
2022-08-22T23:06:32.692Z,100419.00
2022-08-22T23:11:35.946Z,100409.80
2022-08-22T23:16:40.934Z,100412.00
2022-08-22T23:21:47.483Z,100408.00
2022-08-22T23:26:50.728Z,100402.40
2022-08-22T23:32:01.641Z,100390.80
2022-08-22T23:37:08.187Z,100390.80
2022-08-22T23:42:12.715Z,100385.60
2022-08-22T23:47:16.576Z,100395.00
2022-08-22T23:52:20.967Z,100400.40
2022-08-22T23:57:26.578Z,100399.40
